sensor_id;sensor_type;location;lat;lon;timestamp;temperature;humidity
3202;DHT22;34843;48.744;8.958;2022-08-02T00:01:28;18.90;99.90
3202;DHT22;34843;48.744;8.958;2022-08-02T00:03:53;18.90;99.90
3202;DHT22;34843;48.744;8.958;2022-08-02T00:06:19;18.90;99.90
3202;DHT22;34843;48.744;8.958;2022-08-02T00:08:45;18.90;99.90
3202;DHT22;34843;48.744;8.958;2022-08-02T00:11:11;18.80;99.90
3202;DHT22;34843;48.744;8.958;2022-08-02T00:13:37;18.80;99.90
3202;DHT22;34843;48.744;8.958;2022-08-02T00:16:03;18.70;99.90
3202;DHT22;34843;48.744;8.958;2022-08-02T00:18:28;18.70;99.90
3202;DHT22;34843;48.744;8.958;2022-08-02T00:20:54;18.70;99.90
3202;DHT22;34843;48.744;8.958;2022-08-02T00:23:20;18.70;99.90
3202;DHT22;34843;48.744;8.958;2022-08-02T00:25:45;18.80;99.90
3202;DHT22;34843;48.744;8.958;2022-08-02T00:28:11;18.80;99.90
3202;DHT22;34843;48.744;8.958;2022-08-02T00:30:37;18.80;99.90
3202;DHT22;34843;48.744;8.958;2022-08-02T00:33:03;18.80;99.90
3202;DHT22;34843;48.744;8.958;2022-08-02T00:35:33;18.70;99.90
3202;DHT22;34843;48.744;8.958;2022-08-02T00:37:59;18.70;99.90
3202;DHT22;34843;48.744;8.958;2022-08-02T00:40:25;18.60;99.90
3202;DHT22;34843;48.744;8.958;2022-08-02T00:43:02;18.50;99.90
3202;DHT22;34843;48.744;8.958;2022-08-02T00:45:30;18.60;99.90
3202;DHT22;34843;48.744;8.958;2022-08-02T00:47:55;18.40;99.90
3202;DHT22;34843;48.744;8.958;2022-08-02T00:50:21;18.40;99.90
3202;DHT22;34843;48.744;8.958;2022-08-02T00:52:47;18.30;99.90
3202;DHT22;34843;48.744;8.958;2022-08-02T00:55:12;18.30;99.90
3202;DHT22;34843;48.744;8.958;2022-08-02T00:57:38;18.40;99.90
3202;DHT22;34843;48.744;8.958;2022-08-02T01:00:04;18.30;99.90
3202;DHT22;34843;48.744;8.958;2022-08-02T01:02:30;18.30;99.90
3202;DHT22;34843;48.744;8.958;2022-08-02T01:04:56;18.30;99.90
3202;DHT22;34843;48.744;8.958;2022-08-02T01:07:21;18.20;99.90
3202;DHT22;34843;48.744;8.958;2022-08-02T01:09:47;18.20;99.90
3202;DHT22;34843;48.744;8.958;2022-08-02T01:12:13;18.20;99.90
3202;DHT22;34843;48.744;8.958;2022-08-02T01:14:42;18.10;99.90
3202;DHT22;34843;48.744;8.958;2022-08-02T01:25:06;18.10;99.90
3202;DHT22;34843;48.744;8.958;2022-08-02T01:30:40;18.00;99.90
3202;DHT22;34843;48.744;8.958;2022-08-02T01:33:07;18.10;99.90
3202;DHT22;34843;48.744;8.958;2022-08-02T01:35:41;18.00;99.90
3202;DHT22;34843;48.744;8.958;2022-08-02T01:38:16;18.00;99.90
3202;DHT22;34843;48.744;8.958;2022-08-02T01:40:44;17.90;99.90
3202;DHT22;34843;48.744;8.958;2022-08-02T01:43:11;17.90;99.90
3202;DHT22;34843;48.744;8.958;2022-08-02T01:45:40;17.90;99.90
3202;DHT22;34843;48.744;8.958;2022-08-02T01:48:07;17.90;99.90
3202;DHT22;34843;48.744;8.958;2022-08-02T01:50:35;17.70;99.90
3202;DHT22;34843;48.744;8.958;2022-08-02T01:53:05;17.80;99.90
3202;DHT22;34843;48.744;8.958;2022-08-02T01:55:40;17.80;99.90
3202;DHT22;34843;48.744;8.958;2022-08-02T01:58:08;17.70;99.90
3202;DHT22;34843;48.744;8.958;2022-08-02T02:00:37;17.70;99.90
3202;DHT22;34843;48.744;8.958;2022-08-02T02:03:05;17.70;99.90
3202;DHT22;34843;48.744;8.958;2022-08-02T02:05:34;17.60;99.90
3202;DHT22;34843;48.744;8.958;2022-08-02T02:08:00;17.60;99.90
3202;DHT22;34843;48.744;8.958;2022-08-02T02:10:29;17.60;99.90
3202;DHT22;34843;48.744;8.958;2022-08-02T02:13:13;17.60;99.90
3202;DHT22;34843;48.744;8.958;2022-08-02T02:15:42;17.50;99.90
3202;DHT22;34843;48.744;8.958;2022-08-02T02:18:10;17.40;99.90
3202;DHT22;34843;48.744;8.958;2022-08-02T02:20:37;17.30;99.90
3202;DHT22;34843;48.744;8.958;2022-08-02T02:23:02;17.30;99.90
3202;DHT22;34843;48.744;8.958;2022-08-02T02:25:28;17.40;99.90
3202;DHT22;34843;48.744;8.958;2022-08-02T02:28:04;17.30;99.90
3202;DHT22;34843;48.744;8.958;2022-08-02T02:30:32;17.30;99.90
3202;DHT22;34843;48.744;8.958;2022-08-02T02:33:01;17.30;99.90
3202;DHT22;34843;48.744;8.958;2022-08-02T02:35:33;17.40;99.90
3202;DHT22;34843;48.744;8.958;2022-08-02T02:38:03;17.40;99.90
3202;DHT22;34843;48.744;8.958;2022-08-02T02:40:30;17.40;99.90
3202;DHT22;34843;48.744;8.958;2022-08-02T02:42:58;17.30;99.90
3202;DHT22;34843;48.744;8.958;2022-08-02T02:45:25;17.30;99.90
3202;DHT22;34843;48.744;8.958;2022-08-02T02:47:54;17.40;99.90
3202;DHT22;34843;48.744;8.958;2022-08-02T02:50:20;17.40;99.90
3202;DHT22;34843;48.744;8.958;2022-08-02T02:52:47;17.30;99.90
3202;DHT22;34843;48.744;8.958;2022-08-02T02:55:13;17.30;99.90
3202;DHT22;34843;48.744;8.958;2022-08-02T02:57:39;17.20;99.90
3202;DHT22;34843;48.744;8.958;2022-08-02T03:00:10;17.10;99.90
3202;DHT22;34843;48.744;8.958;2022-08-02T03:02:42;17.10;99.90
3202;DHT22;34843;48.744;8.958;2022-08-02T03:05:09;17.00;99.90
3202;DHT22;34843;48.744;8.958;2022-08-02T03:07:36;17.00;99.90
3202;DHT22;34843;48.744;8.958;2022-08-02T03:10:03;17.00;99.90
3202;DHT22;34843;48.744;8.958;2022-08-02T03:12:29;17.00;99.90
3202;DHT22;34843;48.744;8.958;2022-08-02T03:14:57;17.00;99.90
3202;DHT22;34843;48.744;8.958;2022-08-02T03:17:23;17.00;99.90
3202;DHT22;34843;48.744;8.958;2022-08-02T03:19:48;17.00;99.90
3202;DHT22;34843;48.744;8.958;2022-08-02T03:22:14;16.90;99.90
3202;DHT22;34843;48.744;8.958;2022-08-02T03:24:39;16.90;99.90
3202;DHT22;34843;48.744;8.958;2022-08-02T03:27:05;16.90;99.90
3202;DHT22;34843;48.744;8.958;2022-08-02T03:29:30;16.90;99.90
3202;DHT22;34843;48.744;8.958;2022-08-02T03:31:56;16.90;99.90
3202;DHT22;34843;48.744;8.958;2022-08-02T03:34:22;16.90;99.90
3202;DHT22;34843;48.744;8.958;2022-08-02T03:36:53;16.90;99.90
3202;DHT22;34843;48.744;8.958;2022-08-02T03:39:20;16.90;99.90
3202;DHT22;34843;48.744;8.958;2022-08-02T03:41:47;16.90;99.90
3202;DHT22;34843;48.744;8.958;2022-08-02T03:44:14;16.90;99.90
3202;DHT22;34843;48.744;8.958;2022-08-02T03:46:41;17.00;99.90
3202;DHT22;34843;48.744;8.958;2022-08-02T03:49:08;17.00;99.90
3202;DHT22;34843;48.744;8.958;2022-08-02T03:51:35;17.00;99.90
3202;DHT22;34843;48.744;8.958;2022-08-02T03:54:01;16.90;99.90
3202;DHT22;34843;48.744;8.958;2022-08-02T03:56:28;16.90;99.90
3202;DHT22;34843;48.744;8.958;2022-08-02T03:59:23;16.70;99.90
3202;DHT22;34843;48.744;8.958;2022-08-02T04:01:48;16.70;99.90
3202;DHT22;34843;48.744;8.958;2022-08-02T04:04:13;16.70;99.90
3202;DHT22;34843;48.744;8.958;2022-08-02T04:06:39;16.70;99.90
3202;DHT22;34843;48.744;8.958;2022-08-02T04:09:04;16.70;99.90
3202;DHT22;34843;48.744;8.958;2022-08-02T04:11:30;16.70;99.90
3202;DHT22;34843;48.744;8.958;2022-08-02T04:13:58;16.70;99.90
3202;DHT22;34843;48.744;8.958;2022-08-02T04:16:43;16.70;99.90
3202;DHT22;34843;48.744;8.958;2022-08-02T04:19:14;16.70;99.90
3202;DHT22;34843;48.744;8.958;2022-08-02T04:21:43;16.80;99.90
3202;DHT22;34843;48.744;8.958;2022-08-02T04:24:10;16.90;99.90
3202;DHT22;34843;48.744;8.958;2022-08-02T04:26:38;16.90;99.90
3202;DHT22;34843;48.744;8.958;2022-08-02T04:29:05;17.00;99.90
3202;DHT22;34843;48.744;8.958;2022-08-02T04:31:32;17.30;99.90
3202;DHT22;34843;48.744;8.958;2022-08-02T04:33:59;17.30;99.90
3202;DHT22;34843;48.744;8.958;2022-08-02T04:36:24;17.40;99.90
3202;DHT22;34843;48.744;8.958;2022-08-02T04:38:50;17.70;99.90
3202;DHT22;34843;48.744;8.958;2022-08-02T04:41:16;18.00;99.90
3202;DHT22;34843;48.744;8.958;2022-08-02T04:43:41;18.40;99.90
3202;DHT22;34843;48.744;8.958;2022-08-02T04:46:07;18.70;99.90
3202;DHT22;34843;48.744;8.958;2022-08-02T04:48:33;18.90;99.90
3202;DHT22;34843;48.744;8.958;2022-08-02T04:50:58;19.20;99.90
3202;DHT22;34843;48.744;8.958;2022-08-02T04:53:24;19.60;99.90
3202;DHT22;34843;48.744;8.958;2022-08-02T04:55:50;20.10;99.90
3202;DHT22;34843;48.744;8.958;2022-08-02T04:58:15;20.50;99.90
3202;DHT22;34843;48.744;8.958;2022-08-02T05:00:41;20.90;99.90
3202;DHT22;34843;48.744;8.958;2022-08-02T05:03:06;20.90;99.90
3202;DHT22;34843;48.744;8.958;2022-08-02T05:05:32;21.10;99.90
3202;DHT22;34843;48.744;8.958;2022-08-02T05:07:58;21.60;99.90
3202;DHT22;34843;48.744;8.958;2022-08-02T05:10:24;22.30;99.90
3202;DHT22;34843;48.744;8.958;2022-08-02T05:12:49;23.00;99.90
3202;DHT22;34843;48.744;8.958;2022-08-02T05:15:15;23.60;99.90
3202;DHT22;34843;48.744;8.958;2022-08-02T05:17:43;24.40;99.90
3202;DHT22;34843;48.744;8.958;2022-08-02T05:20:10;25.10;99.90
3202;DHT22;34843;48.744;8.958;2022-08-02T05:22:37;25.60;99.90
3202;DHT22;34843;48.744;8.958;2022-08-02T05:25:03;25.60;99.90
3202;DHT22;34843;48.744;8.958;2022-08-02T05:27:29;25.60;99.90
3202;DHT22;34843;48.744;8.958;2022-08-02T05:29:54;25.60;99.90
3202;DHT22;34843;48.744;8.958;2022-08-02T05:32:22;25.90;99.90
3202;DHT22;34843;48.744;8.958;2022-08-02T05:34:47;26.30;99.90
3202;DHT22;34843;48.744;8.958;2022-08-02T05:37:13;26.40;99.90
3202;DHT22;34843;48.744;8.958;2022-08-02T05:39:38;26.30;99.90
3202;DHT22;34843;48.744;8.958;2022-08-02T05:42:04;26.10;99.90
3202;DHT22;34843;48.744;8.958;2022-08-02T05:44:29;25.40;99.90
3202;DHT22;34843;48.744;8.958;2022-08-02T05:46:55;24.80;99.90
3202;DHT22;34843;48.744;8.958;2022-08-02T05:49:20;24.20;99.90
3202;DHT22;34843;48.744;8.958;2022-08-02T05:52:08;23.70;99.90
3202;DHT22;34843;48.744;8.958;2022-08-02T05:57:04;23.10;99.90
3202;DHT22;34843;48.744;8.958;2022-08-02T05:59:43;23.60;99.90
3202;DHT22;34843;48.744;8.958;2022-08-02T06:02:27;24.50;99.90
3202;DHT22;34843;48.744;8.958;2022-08-02T06:05:04;25.40;99.90
3202;DHT22;34843;48.744;8.958;2022-08-02T06:07:35;26.30;99.90
3202;DHT22;34843;48.744;8.958;2022-08-02T06:10:05;27.40;99.90
3202;DHT22;34843;48.744;8.958;2022-08-02T06:12:33;28.30;99.90
3202;DHT22;34843;48.744;8.958;2022-08-02T06:15:02;29.00;99.90
3202;DHT22;34843;48.744;8.958;2022-08-02T06:17:29;29.60;99.90
3202;DHT22;34843;48.744;8.958;2022-08-02T06:19:56;29.60;99.90
3202;DHT22;34843;48.744;8.958;2022-08-02T06:22:26;29.70;99.90
3202;DHT22;34843;48.744;8.958;2022-08-02T06:24:53;29.90;99.90
3202;DHT22;34843;48.744;8.958;2022-08-02T06:27:20;30.20;99.90
3202;DHT22;34843;48.744;8.958;2022-08-02T06:29:48;30.40;99.90
3202;DHT22;34843;48.744;8.958;2022-08-02T06:32:17;30.10;99.90
3202;DHT22;34843;48.744;8.958;2022-08-02T06:34:43;29.80;99.90
3202;DHT22;34843;48.744;8.958;2022-08-02T06:37:37;29.50;99.90
3202;DHT22;34843;48.744;8.958;2022-08-02T06:42:45;29.40;99.90
3202;DHT22;34843;48.744;8.958;2022-08-02T06:45:12;29.20;99.90
3202;DHT22;34843;48.744;8.958;2022-08-02T06:47:38;29.40;99.90
3202;DHT22;34843;48.744;8.958;2022-08-02T06:50:04;29.60;99.90
3202;DHT22;34843;48.744;8.958;2022-08-02T06:52:30;29.80;99.90
3202;DHT22;34843;48.744;8.958;2022-08-02T06:55:01;29.90;99.90
3202;DHT22;34843;48.744;8.958;2022-08-02T06:57:28;29.80;99.90
3202;DHT22;34843;48.744;8.958;2022-08-02T06:59:54;29.50;99.90
3202;DHT22;34843;48.744;8.958;2022-08-02T07:02:19;29.50;99.90
3202;DHT22;34843;48.744;8.958;2022-08-02T07:04:45;29.30;99.90
3202;DHT22;34843;48.744;8.958;2022-08-02T07:07:11;29.20;99.90
3202;DHT22;34843;48.744;8.958;2022-08-02T07:09:36;29.40;99.90
3202;DHT22;34843;48.744;8.958;2022-08-02T07:12:02;29.40;99.90
3202;DHT22;34843;48.744;8.958;2022-08-02T07:14:28;29.30;99.90
3202;DHT22;34843;48.744;8.958;2022-08-02T07:16:53;29.10;99.90
3202;DHT22;34843;48.744;8.958;2022-08-02T07:19:19;29.20;99.90
3202;DHT22;34843;48.744;8.958;2022-08-02T07:21:44;29.40;99.90
3202;DHT22;34843;48.744;8.958;2022-08-02T07:24:10;29.50;99.90
3202;DHT22;34843;48.744;8.958;2022-08-02T07:26:36;29.60;99.90
3202;DHT22;34843;48.744;8.958;2022-08-02T07:29:01;29.80;99.90
3202;DHT22;34843;48.744;8.958;2022-08-02T07:31:27;29.80;99.90
3202;DHT22;34843;48.744;8.958;2022-08-02T07:33:52;29.60;99.90
3202;DHT22;34843;48.744;8.958;2022-08-02T07:36:18;29.00;99.90
3202;DHT22;34843;48.744;8.958;2022-08-02T07:38:44;28.90;99.90
3202;DHT22;34843;48.744;8.958;2022-08-02T07:41:09;29.00;99.90
3202;DHT22;34843;48.744;8.958;2022-08-02T07:43:35;29.00;99.90
3202;DHT22;34843;48.744;8.958;2022-08-02T07:46:00;29.00;99.90
3202;DHT22;34843;48.744;8.958;2022-08-02T07:48:26;28.80;99.90
3202;DHT22;34843;48.744;8.958;2022-08-02T07:50:52;28.60;99.90
3202;DHT22;34843;48.744;8.958;2022-08-02T07:53:18;28.40;99.90
3202;DHT22;34843;48.744;8.958;2022-08-02T07:55:44;28.40;99.90
3202;DHT22;34843;48.744;8.958;2022-08-02T07:58:10;28.60;99.90
3202;DHT22;34843;48.744;8.958;2022-08-02T08:00:36;28.90;99.90
3202;DHT22;34843;48.744;8.958;2022-08-02T08:03:01;29.00;99.90
3202;DHT22;34843;48.744;8.958;2022-08-02T08:05:27;28.90;99.90
3202;DHT22;34843;48.744;8.958;2022-08-02T08:07:53;28.80;99.90
3202;DHT22;34843;48.744;8.958;2022-08-02T08:10:18;28.40;99.90
3202;DHT22;34843;48.744;8.958;2022-08-02T08:12:44;27.40;99.90
3202;DHT22;34843;48.744;8.958;2022-08-02T08:15:09;27.10;99.90
3202;DHT22;34843;48.744;8.958;2022-08-02T08:17:36;26.70;99.90
3202;DHT22;34843;48.744;8.958;2022-08-02T08:20:03;26.50;99.90
3202;DHT22;34843;48.744;8.958;2022-08-02T08:22:28;26.40;99.90
3202;DHT22;34843;48.744;8.958;2022-08-02T08:24:54;26.30;99.90
3202;DHT22;34843;48.744;8.958;2022-08-02T08:27:19;26.10;99.90
3202;DHT22;34843;48.744;8.958;2022-08-02T08:29:47;25.90;99.90
3202;DHT22;34843;48.744;8.958;2022-08-02T08:32:13;25.90;99.90
3202;DHT22;34843;48.744;8.958;2022-08-02T08:34:39;25.90;99.90
3202;DHT22;34843;48.744;8.958;2022-08-02T08:37:04;25.90;99.90
3202;DHT22;34843;48.744;8.958;2022-08-02T08:39:30;25.70;99.90
3202;DHT22;34843;48.744;8.958;2022-08-02T08:41:56;25.60;99.90
3202;DHT22;34843;48.744;8.958;2022-08-02T08:44:22;25.50;99.90
3202;DHT22;34843;48.744;8.958;2022-08-02T08:46:48;25.50;99.90
3202;DHT22;34843;48.744;8.958;2022-08-02T08:49:22;25.50;99.90
3202;DHT22;34843;48.744;8.958;2022-08-02T08:51:51;25.40;99.90
3202;DHT22;34843;48.744;8.958;2022-08-02T08:54:22;25.30;99.90
3202;DHT22;34843;48.744;8.958;2022-08-02T08:56:49;25.20;99.90
3202;DHT22;34843;48.744;8.958;2022-08-02T08:59:16;25.30;99.90
3202;DHT22;34843;48.744;8.958;2022-08-02T09:01:44;25.30;99.90
3202;DHT22;34843;48.744;8.958;2022-08-02T09:04:09;25.50;99.90
3202;DHT22;34843;48.744;8.958;2022-08-02T09:06:37;25.60;99.90
3202;DHT22;34843;48.744;8.958;2022-08-02T09:09:03;25.70;99.90
3202;DHT22;34843;48.744;8.958;2022-08-02T09:11:28;25.90;99.90
3202;DHT22;34843;48.744;8.958;2022-08-02T09:13:56;26.00;99.90
3202;DHT22;34843;48.744;8.958;2022-08-02T09:18:56;26.10;99.90
3202;DHT22;34843;48.744;8.958;2022-08-02T09:21:22;26.10;99.90
3202;DHT22;34843;48.744;8.958;2022-08-02T09:23:50;26.30;99.90
3202;DHT22;34843;48.744;8.958;2022-08-02T09:26:17;26.50;99.90
3202;DHT22;34843;48.744;8.958;2022-08-02T09:28:45;26.60;99.90
3202;DHT22;34843;48.744;8.958;2022-08-02T09:31:16;26.50;99.90
3202;DHT22;34843;48.744;8.958;2022-08-02T09:33:44;26.40;99.90
3202;DHT22;34843;48.744;8.958;2022-08-02T09:36:15;26.40;99.90
3202;DHT22;34843;48.744;8.958;2022-08-02T09:41:22;26.30;99.90
3202;DHT22;34843;48.744;8.958;2022-08-02T09:43:48;26.00;99.90
3202;DHT22;34843;48.744;8.958;2022-08-02T09:46:25;25.80;99.90
3202;DHT22;34843;48.744;8.958;2022-08-02T09:48:56;25.80;99.90
3202;DHT22;34843;48.744;8.958;2022-08-02T09:51:24;25.80;99.90
3202;DHT22;34843;48.744;8.958;2022-08-02T09:53:55;25.80;99.90
3202;DHT22;34843;48.744;8.958;2022-08-02T09:56:22;25.80;99.90
3202;DHT22;34843;48.744;8.958;2022-08-02T09:58:49;25.90;99.90
3202;DHT22;34843;48.744;8.958;2022-08-02T10:01:18;25.90;99.90
3202;DHT22;34843;48.744;8.958;2022-08-02T10:04:04;25.90;99.90
3202;DHT22;34843;48.744;8.958;2022-08-02T10:06:31;26.00;99.90
3202;DHT22;34843;48.744;8.958;2022-08-02T10:08:57;26.10;99.90
3202;DHT22;34843;48.744;8.958;2022-08-02T10:11:24;26.30;99.90
3202;DHT22;34843;48.744;8.958;2022-08-02T10:13:50;26.40;99.90
3202;DHT22;34843;48.744;8.958;2022-08-02T10:16:18;26.50;99.90
3202;DHT22;34843;48.744;8.958;2022-08-02T10:18:53;26.40;99.90
3202;DHT22;34843;48.744;8.958;2022-08-02T10:26:38;26.50;99.90
3202;DHT22;34843;48.744;8.958;2022-08-02T10:29:04;26.50;99.90
3202;DHT22;34843;48.744;8.958;2022-08-02T10:31:45;26.60;99.90
3202;DHT22;34843;48.744;8.958;2022-08-02T10:34:13;26.80;99.90
3202;DHT22;34843;48.744;8.958;2022-08-02T10:36:41;27.10;99.90
3202;DHT22;34843;48.744;8.958;2022-08-02T10:39:06;27.30;99.90
3202;DHT22;34843;48.744;8.958;2022-08-02T10:41:40;27.50;99.90
3202;DHT22;34843;48.744;8.958;2022-08-02T10:44:06;27.70;99.90
3202;DHT22;34843;48.744;8.958;2022-08-02T10:46:35;27.90;99.90
3202;DHT22;34843;48.744;8.958;2022-08-02T10:49:16;28.00;99.90
3202;DHT22;34843;48.744;8.958;2022-08-02T10:54:27;28.20;99.90
3202;DHT22;34843;48.744;8.958;2022-08-02T10:56:55;27.90;99.90
3202;DHT22;34843;48.744;8.958;2022-08-02T11:01:57;27.50;99.90
3202;DHT22;34843;48.744;8.958;2022-08-02T11:07:34;27.50;99.90
3202;DHT22;34843;48.744;8.958;2022-08-02T11:13:05;27.40;99.90
3202;DHT22;34843;48.744;8.958;2022-08-02T11:18:20;27.30;99.90
3202;DHT22;34843;48.744;8.958;2022-08-02T11:20:46;27.20;99.90
3202;DHT22;34843;48.744;8.958;2022-08-02T11:23:34;27.10;99.90
3202;DHT22;34843;48.744;8.958;2022-08-02T11:28:53;27.10;99.90
3202;DHT22;34843;48.744;8.958;2022-08-02T11:31:19;27.00;99.90
3202;DHT22;34843;48.744;8.958;2022-08-02T11:33:48;26.90;99.90
3202;DHT22;34843;48.744;8.958;2022-08-02T11:36:15;26.90;99.90
3202;DHT22;34843;48.744;8.958;2022-08-02T11:38:41;26.90;99.90
3202;DHT22;34843;48.744;8.958;2022-08-02T11:41:06;26.80;99.90
3202;DHT22;34843;48.744;8.958;2022-08-02T11:43:32;26.90;99.90
3202;DHT22;34843;48.744;8.958;2022-08-02T11:46:11;27.10;99.90
3202;DHT22;34843;48.744;8.958;2022-08-02T11:48:39;27.30;99.90
3202;DHT22;34843;48.744;8.958;2022-08-02T11:51:16;27.40;99.90
3202;DHT22;34843;48.744;8.958;2022-08-02T11:53:51;27.60;99.90
3202;DHT22;34843;48.744;8.958;2022-08-02T11:56:25;27.60;99.90
3202;DHT22;34843;48.744;8.958;2022-08-02T11:59:06;27.60;99.90
3202;DHT22;34843;48.744;8.958;2022-08-02T12:01:33;27.70;99.90
3202;DHT22;34843;48.744;8.958;2022-08-02T12:04:01;27.80;99.90
3202;DHT22;34843;48.744;8.958;2022-08-02T12:06:27;28.10;99.90
3202;DHT22;34843;48.744;8.958;2022-08-02T12:09:12;28.40;99.90
3202;DHT22;34843;48.744;8.958;2022-08-02T12:11:38;28.60;99.90
3202;DHT22;34843;48.744;8.958;2022-08-02T12:14:05;28.80;99.90
3202;DHT22;34843;48.744;8.958;2022-08-02T12:16:38;28.90;99.90
3202;DHT22;34843;48.744;8.958;2022-08-02T12:19:24;29.00;99.90
3202;DHT22;34843;48.744;8.958;2022-08-02T12:24:37;29.30;99.90
3202;DHT22;34843;48.744;8.958;2022-08-02T12:27:03;29.40;99.90
3202;DHT22;34843;48.744;8.958;2022-08-02T12:29:30;29.20;99.90
3202;DHT22;34843;48.744;8.958;2022-08-02T12:31:56;28.70;99.90
3202;DHT22;34843;48.744;8.958;2022-08-02T12:34:22;28.40;99.90
3202;DHT22;34843;48.744;8.958;2022-08-02T12:37:07;28.20;99.90
3202;DHT22;34843;48.744;8.958;2022-08-02T12:39:44;27.90;99.90
3202;DHT22;34843;48.744;8.958;2022-08-02T12:42:12;27.80;99.90
3202;DHT22;34843;48.744;8.958;2022-08-02T12:44:55;27.80;99.90
3202;DHT22;34843;48.744;8.958;2022-08-02T12:47:25;27.70;99.90
3202;DHT22;34843;48.744;8.958;2022-08-02T12:52:37;27.60;99.90
3202;DHT22;34843;48.744;8.958;2022-08-02T12:55:15;27.70;99.90
3202;DHT22;34843;48.744;8.958;2022-08-02T12:57:57;27.80;99.90
3202;DHT22;34843;48.744;8.958;2022-08-02T13:00:26;28.00;99.90
3202;DHT22;34843;48.744;8.958;2022-08-02T13:02:52;28.20;99.90
3202;DHT22;34843;48.744;8.958;2022-08-02T13:05:18;28.30;99.90
3202;DHT22;34843;48.744;8.958;2022-08-02T13:07:44;28.50;99.90
3202;DHT22;34843;48.744;8.958;2022-08-02T13:10:09;28.70;99.90
3202;DHT22;34843;48.744;8.958;2022-08-02T13:12:35;28.90;99.90
3202;DHT22;34843;48.744;8.958;2022-08-02T13:15:04;29.10;99.90
3202;DHT22;34843;48.744;8.958;2022-08-02T13:17:30;29.20;99.90
3202;DHT22;34843;48.744;8.958;2022-08-02T13:19:56;29.30;99.90
3202;DHT22;34843;48.744;8.958;2022-08-02T13:22:21;29.50;99.90
3202;DHT22;34843;48.744;8.958;2022-08-02T13:24:47;29.70;99.90
3202;DHT22;34843;48.744;8.958;2022-08-02T13:27:15;29.70;99.90
3202;DHT22;34843;48.744;8.958;2022-08-02T13:29:41;29.80;99.90
3202;DHT22;34843;48.744;8.958;2022-08-02T13:32:07;29.80;99.90
3202;DHT22;34843;48.744;8.958;2022-08-02T13:34:32;29.90;99.90
3202;DHT22;34843;48.744;8.958;2022-08-02T13:36:58;29.80;99.90
3202;DHT22;34843;48.744;8.958;2022-08-02T13:39:24;29.70;99.90
3202;DHT22;34843;48.744;8.958;2022-08-02T13:41:50;29.70;99.90
3202;DHT22;34843;48.744;8.958;2022-08-02T13:44:15;29.70;99.90
3202;DHT22;34843;48.744;8.958;2022-08-02T13:46:41;29.70;99.90
3202;DHT22;34843;48.744;8.958;2022-08-02T13:49:07;29.80;99.90
3202;DHT22;34843;48.744;8.958;2022-08-02T13:51:32;29.70;99.90
3202;DHT22;34843;48.744;8.958;2022-08-02T13:53:58;29.70;99.90
3202;DHT22;34843;48.744;8.958;2022-08-02T13:56:23;29.80;99.90
3202;DHT22;34843;48.744;8.958;2022-08-02T13:58:49;30.00;99.90
3202;DHT22;34843;48.744;8.958;2022-08-02T14:01:14;30.20;99.90
3202;DHT22;34843;48.744;8.958;2022-08-02T14:03:40;30.50;99.90
3202;DHT22;34843;48.744;8.958;2022-08-02T14:06:06;30.40;99.90
3202;DHT22;34843;48.744;8.958;2022-08-02T14:08:33;30.40;99.90
3202;DHT22;34843;48.744;8.958;2022-08-02T14:10:59;30.50;99.90
3202;DHT22;34843;48.744;8.958;2022-08-02T14:13:24;30.30;99.90
3202;DHT22;34843;48.744;8.958;2022-08-02T14:15:50;30.30;99.90
3202;DHT22;34843;48.744;8.958;2022-08-02T14:18:15;30.20;99.90
3202;DHT22;34843;48.744;8.958;2022-08-02T14:20:42;30.20;99.90
3202;DHT22;34843;48.744;8.958;2022-08-02T14:23:08;30.00;99.90
3202;DHT22;34843;48.744;8.958;2022-08-02T14:25:33;30.10;99.90
3202;DHT22;34843;48.744;8.958;2022-08-02T14:27:59;30.00;99.90
3202;DHT22;34843;48.744;8.958;2022-08-02T14:30:26;29.90;99.90
3202;DHT22;34843;48.744;8.958;2022-08-02T14:32:52;29.80;99.90
3202;DHT22;34843;48.744;8.958;2022-08-02T14:35:18;29.60;99.90
3202;DHT22;34843;48.744;8.958;2022-08-02T14:37:43;29.50;99.90
3202;DHT22;34843;48.744;8.958;2022-08-02T14:40:09;29.30;99.90
3202;DHT22;34843;48.744;8.958;2022-08-02T14:42:35;29.10;99.90
3202;DHT22;34843;48.744;8.958;2022-08-02T14:45:01;29.10;99.90
3202;DHT22;34843;48.744;8.958;2022-08-02T14:47:26;29.10;99.90
3202;DHT22;34843;48.744;8.958;2022-08-02T14:49:52;28.90;99.90
3202;DHT22;34843;48.744;8.958;2022-08-02T14:52:18;29.00;99.90
3202;DHT22;34843;48.744;8.958;2022-08-02T14:54:43;28.90;99.90
3202;DHT22;34843;48.744;8.958;2022-08-02T14:57:09;29.00;99.90
3202;DHT22;34843;48.744;8.958;2022-08-02T14:59:35;29.00;99.90
3202;DHT22;34843;48.744;8.958;2022-08-02T15:02:01;29.00;99.90
3202;DHT22;34843;48.744;8.958;2022-08-02T15:04:27;29.20;99.90
3202;DHT22;34843;48.744;8.958;2022-08-02T15:06:53;29.30;99.90
3202;DHT22;34843;48.744;8.958;2022-08-02T15:09:19;29.30;99.90
3202;DHT22;34843;48.744;8.958;2022-08-02T15:11:45;29.20;99.90
3202;DHT22;34843;48.744;8.958;2022-08-02T15:14:11;29.20;99.90
3202;DHT22;34843;48.744;8.958;2022-08-02T15:16:37;29.00;99.90
3202;DHT22;34843;48.744;8.958;2022-08-02T15:19:04;29.00;99.90
3202;DHT22;34843;48.744;8.958;2022-08-02T15:21:30;29.10;99.90
3202;DHT22;34843;48.744;8.958;2022-08-02T15:23:56;29.10;99.90
3202;DHT22;34843;48.744;8.958;2022-08-02T15:26:22;29.50;99.90
3202;DHT22;34843;48.744;8.958;2022-08-02T15:28:48;29.30;99.90
3202;DHT22;34843;48.744;8.958;2022-08-02T15:31:15;29.10;99.90
3202;DHT22;34843;48.744;8.958;2022-08-02T15:33:41;29.10;99.90
3202;DHT22;34843;48.744;8.958;2022-08-02T15:36:09;29.00;99.90
3202;DHT22;34843;48.744;8.958;2022-08-02T15:38:35;28.70;99.90
3202;DHT22;34843;48.744;8.958;2022-08-02T15:41:01;28.90;99.90
3202;DHT22;34843;48.744;8.958;2022-08-02T15:43:27;29.00;99.90
3202;DHT22;34843;48.744;8.958;2022-08-02T15:45:53;29.00;99.90
3202;DHT22;34843;48.744;8.958;2022-08-02T15:48:18;28.90;99.90
3202;DHT22;34843;48.744;8.958;2022-08-02T15:50:44;29.10;99.90
3202;DHT22;34843;48.744;8.958;2022-08-02T15:53:10;28.90;99.90
3202;DHT22;34843;48.744;8.958;2022-08-02T15:58:04;29.00;99.60
3202;DHT22;34843;48.744;8.958;2022-08-02T16:00:29;29.10;99.90
3202;DHT22;34843;48.744;8.958;2022-08-02T16:02:55;28.80;99.90
3202;DHT22;34843;48.744;8.958;2022-08-02T16:05:21;28.90;99.80
3202;DHT22;34843;48.744;8.958;2022-08-02T16:07:47;28.90;99.90
3202;DHT22;34843;48.744;8.958;2022-08-02T16:10:14;28.90;99.90
3202;DHT22;34843;48.744;8.958;2022-08-02T16:12:40;29.00;99.90
3202;DHT22;34843;48.744;8.958;2022-08-02T16:15:06;29.60;99.90
3202;DHT22;34843;48.744;8.958;2022-08-02T16:17:32;29.00;99.90
3202;DHT22;34843;48.744;8.958;2022-08-02T16:19:57;29.00;99.70
3202;DHT22;34843;48.744;8.958;2022-08-02T16:22:23;28.90;99.80
3202;DHT22;34843;48.744;8.958;2022-08-02T16:24:50;28.80;99.70
3202;DHT22;34843;48.744;8.958;2022-08-02T16:27:15;28.70;99.70
3202;DHT22;34843;48.744;8.958;2022-08-02T16:29:41;28.70;99.80
3202;DHT22;34843;48.744;8.958;2022-08-02T16:32:06;28.60;99.90
3202;DHT22;34843;48.744;8.958;2022-08-02T16:34:33;28.60;99.90
3202;DHT22;34843;48.744;8.958;2022-08-02T16:36:58;28.60;99.90
3202;DHT22;34843;48.744;8.958;2022-08-02T16:39:24;28.50;99.90